Time;durP1;ratioP1;P1;durP2;ratioP2;P2;SDS_P1;SDS_P2;PMS_P1;PMS_P2;Temp;Humidity;BMP_temperature;BMP_pressure;BME280_temperature;BME280_humidity;BME280_pressure;Samples;Min_cycle;Max_cycle;Signal;HPM_P1;HPM_P2
2022/01/02 00:01:57;;;;;;;12.10;5.75;;;10.90;99.90;;;;;;5075834;28;20096;-45
2022/01/02 00:04:25;;;;;;;12.57;5.95;;;10.90;99.90;;;;;;5088984;28;20773;-44
2022/01/02 00:06:53;;;;;;;9.05;5.47;;;10.90;99.90;;;;;;5101575;28;20101;-44
2022/01/02 00:09:34;;;;;;;9.43;4.70;;;10.90;99.90;;;;;;5105865;28;20059;-46
2022/01/02 00:12:20;;;;;;;11.68;5.68;;;10.90;99.90;;;;;;5101917;28;20172;-44
2022/01/02 00:14:48;;;;;;;8.63;5.07;;;10.90;99.90;;;;;;5059708;28;20043;-44
2022/01/02 00:17:22;;;;;;;7.22;4.93;;;10.90;99.90;;;;;;5098394;28;20044;-44
2022/01/02 00:19:55;;;;;;;11.15;5.10;;;10.90;99.90;;;;;;5097992;28;20131;-46
2022/01/02 00:22:36;;;;;;;12.20;5.63;;;10.90;99.90;;;;;;5108607;27;20501;-44
2022/01/02 00:25:07;;;;;;;11.85;5.30;;;10.90;99.90;;;;;;5074485;28;20427;-45
2022/01/02 00:27:35;;;;;;;11.13;4.78;;;11.00;99.90;;;;;;5095600;28;20043;-44
2022/01/02 00:30:05;;;;;;;10.35;5.65;;;11.00;99.90;;;;;;5101936;28;20036;-48
2022/01/02 00:32:36;;;;;;;9.73;4.82;;;10.90;99.90;;;;;;5079636;28;20401;-43
2022/01/02 00:35:02;;;;;;;13.82;6.15;;;10.90;99.90;;;;;;5101097;28;21236;-44
2022/01/02 00:37:28;;;;;;;14.53;5.80;;;11.00;99.90;;;;;;5100596;28;20075;-45
2022/01/02 00:39:54;;;;;;;11.32;4.75;;;11.00;99.90;;;;;;5079013;28;20086;-46
2022/01/02 00:42:30;;;;;;;14.85;5.88;;;11.00;99.90;;;;;;5098480;28;20048;-44
2022/01/02 00:45:16;;;;;;;9.55;5.57;;;11.00;99.90;;;;;;5091807;28;20040;-45
2022/01/02 00:47:53;;;;;;;9.75;5.25;;;11.00;99.90;;;;;;5096951;28;20093;-44
2022/01/02 00:50:33;;;;;;;10.70;5.05;;;11.00;99.90;;;;;;5105751;28;20039;-45
2022/01/02 00:53:02;;;;;;;9.63;5.82;;;11.00;99.90;;;;;;5092863;28;20047;-46
2022/01/02 00:55:33;;;;;;;11.82;5.93;;;11.00;99.90;;;;;;5065378;28;20055;-45
2022/01/02 00:58:03;;;;;;;12.20;5.90;;;11.00;99.90;;;;;;5094999;28;20042;-44
2022/01/02 01:00:30;;;;;;;9.73;5.18;;;11.00;99.90;;;;;;5095387;28;20032;-46
2022/01/02 01:02:58;;;;;;;15.07;5.70;;;11.00;99.90;;;;;;5102343;28;20039;-43
2022/01/02 01:05:30;;;;;;;10.82;5.18;;;11.00;99.90;;;;;;5096565;28;20117;-46
2022/01/02 01:08:03;;;;;;;13.63;5.85;;;11.00;99.90;;;;;;5081828;28;20525;-45
2022/01/02 01:10:32;;;;;;;12.35;5.75;;;11.00;99.90;;;;;;5096635;28;20099;-44
2022/01/02 01:13:00;;;;;;;13.18;5.93;;;11.00;99.90;;;;;;5105484;28;20035;-44
2022/01/02 01:15:28;;;;;;;10.45;5.60;;;11.00;99.90;;;;;;5079725;28;20039;-44
2022/01/02 01:17:56;;;;;;;13.15;5.63;;;11.00;99.90;;;;;;5075581;28;20102;-45
2022/01/02 01:20:25;;;;;;;15.88;6.72;;;11.00;99.90;;;;;;5098228;28;20039;-44
2022/01/02 01:22:51;;;;;;;13.70;5.65;;;11.00;99.90;;;;;;5105135;28;20040;-45
2022/01/02 01:25:18;;;;;;;10.43;5.97;;;11.00;99.90;;;;;;5085755;28;20062;-46
2022/01/02 01:27:46;;;;;;;11.82;6.00;;;11.00;99.90;;;;;;5064392;28;20052;-44
2022/01/02 01:30:16;;;;;;;12.80;6.38;;;11.00;99.90;;;;;;5101194;28;20066;-46
2022/01/02 01:32:43;;;;;;;12.93;5.97;;;11.00;99.90;;;;;;5082199;28;20047;-46
2022/01/02 01:35:10;;;;;;;12.25;6.45;;;10.90;99.90;;;;;;5089689;28;20087;-44
2022/01/02 01:37:37;;;;;;;10.30;6.72;;;11.00;99.90;;;;;;5106152;28;20354;-45
2022/01/02 01:40:10;;;;;;;13.65;6.18;;;11.00;99.90;;;;;;5080123;28;20047;-44
2022/01/02 01:42:37;;;;;;;15.95;6.95;;;11.00;99.90;;;;;;5085533;28;20066;-44
2022/01/02 01:48:05;;;;;;;14.65;5.97;;;11.00;99.90;;;;;;5090784;28;20052;-44
2022/01/02 01:50:35;;;;;;;15.07;6.97;;;11.00;99.90;;;;;;5103420;28;20054;-44
2022/01/02 01:53:02;;;;;;;16.15;7.05;;;11.00;99.90;;;;;;5083973;28;20032;-46
2022/01/02 01:55:28;;;;;;;14.95;7.40;;;11.00;99.90;;;;;;5093631;28;20558;-43
2022/01/02 01:57:54;;;;;;;14.18;6.60;;;11.00;99.90;;;;;;5102518;28;20039;-44
2022/01/02 02:00:22;;;;;;;17.70;7.40;;;10.90;99.90;;;;;;5077060;28;20143;-44
2022/01/02 02:02:49;;;;;;;15.55;6.78;;;10.90;99.90;;;;;;5083050;28;20040;-44
2022/01/02 02:05:15;;;;;;;16.23;7.07;;;10.90;99.90;;;;;;5082234;28;20037;-50
2022/01/02 02:07:44;;;;;;;18.65;7.50;;;10.90;99.90;;;;;;5080909;28;20302;-49
2022/01/02 02:10:24;;;;;;;17.73;7.40;;;10.90;99.90;;;;;;5104193;27;20078;-49
2022/01/02 02:12:53;;;;;;;15.82;7.05;;;10.90;99.90;;;;;;5084144;28;20043;-49
2022/01/02 02:15:24;;;;;;;15.90;7.97;;;10.90;99.90;;;;;;5103054;28;20054;-49
2022/01/02 02:17:51;;;;;;;15.70;8.02;;;10.90;99.90;;;;;;5083375;28;20028;-48
2022/01/02 02:20:29;;;;;;;;;;;10.90;99.90;;;;;;5065658;28;20047;-48
2022/01/02 02:22:56;;;;;;;13.07;7.22;;;10.90;99.90;;;;;;5106214;28;19920;-48
2022/01/02 02:25:27;;;;;;;15.65;8.18;;;10.90;99.90;;;;;;5084202;28;20047;-48
2022/01/02 02:27:56;;;;;;;17.25;8.52;;;10.90;99.90;;;;;;5092792;28;20080;-48
2022/01/02 02:30:23;;;;;;;15.40;7.47;;;10.90;99.90;;;;;;5082226;28;20130;-49
2022/01/02 02:32:49;;;;;;;15.10;7.68;;;10.90;99.90;;;;;;5095112;28;20100;-55
2022/01/02 02:35:15;;;;;;;13.55;7.70;;;10.90;99.90;;;;;;5069511;28;20047;-52
2022/01/02 02:37:44;;;;;;;18.40;8.73;;;10.90;99.90;;;;;;5094520;28;20044;-54
2022/01/02 02:40:16;;;;;;;17.83;8.77;;;10.90;99.90;;;;;;5070766;28;20035;-50
2022/01/02 02:51:12;;;;;;;16.85;9.13;;;10.90;99.90;;;;;;5096879;28;20075;-52
2022/01/02 02:53:44;;;;;;;18.08;8.95;;;10.90;99.90;;;;;;5095517;28;20040;-51
2022/01/02 02:56:19;;;;;;;19.42;9.00;;;10.90;99.90;;;;;;5069614;28;20910;-53
2022/01/02 02:58:46;;;;;;;20.13;9.18;;;10.80;99.90;;;;;;5107025;28;20055;-53
2022/01/02 03:01:15;;;;;;;21.27;9.23;;;10.80;99.90;;;;;;5102921;28;20028;-49
2022/01/02 03:03:42;;;;;;;23.58;10.05;;;10.90;99.90;;;;;;5080213;28;20040;-54
2022/01/02 03:06:09;;;;;;;20.67;9.07;;;10.80;99.90;;;;;;5078841;28;20478;-51
2022/01/02 03:08:36;;;;;;;27.13;11.30;;;10.80;99.90;;;;;;5098807;28;20044;-48
2022/01/02 03:11:03;;;;;;;19.88;9.45;;;10.80;99.90;;;;;;5103098;28;20044;-52
2022/01/02 03:13:30;;;;;;;21.15;10.13;;;10.80;99.90;;;;;;5090388;28;20121;-52
2022/01/02 03:15:55;;;;;;;19.65;9.07;;;10.80;99.90;;;;;;5102013;28;20040;-54
2022/01/02 03:18:21;;;;;;;17.85;10.07;;;10.80;99.90;;;;;;5102854;28;20489;-56
2022/01/02 03:20:47;;;;;;;18.73;9.60;;;10.80;99.90;;;;;;5085295;28;20567;-51
2022/01/02 03:23:13;;;;;;;20.52;9.60;;;10.80;99.90;;;;;;5107296;28;20488;-54
2022/01/02 03:25:39;;;;;;;21.25;10.20;;;10.80;99.90;;;;;;5099777;28;20073;-55
2022/01/02 03:28:05;;;;;;;27.08;10.55;;;10.80;99.90;;;;;;5104207;28;20035;-52
2022/01/02 03:30:31;;;;;;;17.50;8.95;;;10.70;99.90;;;;;;5111933;27;20075;-50
2022/01/02 03:32:57;;;;;;;16.17;9.60;;;10.80;99.90;;;;;;5057155;28;20044;-53
2022/01/02 03:35:23;;;;;;;19.73;9.77;;;10.70;99.90;;;;;;5079578;28;20526;-53
2022/01/02 03:37:52;;;;;;;22.15;9.50;;;10.70;99.90;;;;;;5076807;28;20559;-51
2022/01/02 03:40:18;;;;;;;19.67;9.85;;;10.70;99.90;;;;;;5068414;28;20043;-53
2022/01/02 03:42:44;;;;;;;19.30;10.40;;;10.70;99.90;;;;;;5102672;28;20556;-52
2022/01/02 03:45:10;;;;;;;23.40;10.68;;;10.70;99.90;;;;;;5096866;28;20119;-54
2022/01/02 03:47:36;;;;;;;19.15;10.02;;;10.70;99.90;;;;;;5105427;28;20043;-54
2022/01/02 03:50:04;;;;;;;20.80;9.13;;;10.70;99.90;;;;;;5078540;28;20044;-54
2022/01/02 03:52:30;;;;;;;;;;;10.70;99.90;;;;;;5095556;28;20051;-53
2022/01/02 03:54:57;;;;;;;18.25;9.60;;;10.70;99.90;;;;;;5100418;28;19922;-53
2022/01/02 03:57:23;;;;;;;19.83;10.65;;;10.70;99.90;;;;;;5100225;28;20151;-52
2022/01/02 03:59:49;;;;;;;17.17;9.35;;;10.70;99.90;;;;;;5099137;28;20135;-54
2022/01/02 04:02:15;;;;;;;19.48;10.38;;;10.70;99.90;;;;;;5094887;28;20035;-53
2022/01/02 04:04:41;;;;;;;22.67;10.77;;;10.70;99.90;;;;;;5104847;28;20167;-53
2022/01/02 04:07:07;;;;;;;16.65;10.02;;;10.70;99.90;;;;;;5086156;28;20066;-53
2022/01/02 04:09:32;;;;;;;22.60;10.15;;;10.70;99.90;;;;;;5080254;28;20051;-52
2022/01/02 04:11:59;;;;;;;23.85;10.25;;;10.70;99.90;;;;;;5114592;27;20085;-52
2022/01/02 04:14:25;;;;;;;20.48;9.90;;;10.70;99.90;;;;;;5103034;28;20550;-53
2022/01/02 04:16:52;;;;;;;24.60;11.32;;;10.70;99.90;;;;;;5088905;28;20543;-52
2022/01/02 04:19:19;;;;;;;24.67;11.43;;;10.70;99.90;;;;;;5072558;28;20480;-53
2022/01/02 04:21:45;;;;;;;24.13;11.40;;;10.80;99.90;;;;;;5080265;28;20119;-52
2022/01/02 04:24:11;;;;;;;24.83;10.75;;;10.80;99.90;;;;;;5085417;28;20181;-53
2022/01/02 04:26:37;;;;;;;22.40;10.95;;;10.80;99.90;;;;;;5093079;28;20404;-50
2022/01/02 04:29:03;;;;;;;24.10;10.35;;;10.80;99.90;;;;;;5092255;28;20048;-54
2022/01/02 04:31:29;;;;;;;27.50;11.00;;;10.80;99.90;;;;;;5078442;28;20040;-55
2022/01/02 04:33:55;;;;;;;25.08;10.40;;;10.80;99.90;;;;;;5086545;28;20043;-54
2022/01/02 04:36:21;;;;;;;29.70;10.98;;;10.80;99.90;;;;;;5078009;28;20059;-56
2022/01/02 04:38:47;;;;;;;25.13;10.00;;;10.80;99.90;;;;;;5074044;28;20039;-54
2022/01/02 04:41:13;;;;;;;28.90;9.80;;;10.80;99.90;;;;;;5083038;28;20054;-54
2022/01/02 04:43:39;;;;;;;24.08;10.68;;;10.90;99.90;;;;;;5080528;28;20060;-56
2022/01/02 04:46:05;;;;;;;21.70;9.45;;;10.90;99.90;;;;;;5079693;28;20036;-55
2022/01/02 04:48:31;;;;;;;20.75;9.82;;;10.90;99.90;;;;;;5072408;28;20040;-56
2022/01/02 04:50:57;;;;;;;23.42;9.73;;;10.90;99.90;;;;;;5084425;28;20047;-56
2022/01/02 04:53:23;;;;;;;16.85;8.95;;;10.90;99.90;;;;;;5082927;28;20643;-55
2022/01/02 04:55:50;;;;;;;18.95;9.05;;;10.90;99.90;;;;;;5071846;28;20052;-56
2022/01/02 04:58:18;;;;;;;20.50;9.97;;;10.90;99.90;;;;;;5105593;28;20036;-56
2022/01/02 05:00:44;;;;;;;21.08;9.68;;;11.00;99.90;;;;;;5069952;28;20306;-56
2022/01/02 05:03:10;;;;;;;18.58;8.48;;;11.10;99.90;;;;;;5078759;28;20348;-55
2022/01/02 05:05:36;;;;;;;22.55;9.23;;;11.00;99.90;;;;;;5078185;28;20097;-54
2022/01/02 05:08:02;;;;;;;18.20;8.30;;;11.00;99.90;;;;;;5074463;28;20475;-54
2022/01/02 05:10:28;;;;;;;18.83;9.02;;;11.00;99.90;;;;;;5090843;28;20048;-56
2022/01/02 05:12:54;;;;;;;20.25;9.55;;;11.00;99.90;;;;;;5103288;28;20057;-55
2022/01/02 05:15:20;;;;;;;20.17;9.18;;;11.00;99.90;;;;;;5082923;28;20123;-54
2022/01/02 05:17:46;;;;;;;18.80;9.02;;;11.00;99.90;;;;;;5079132;28;20471;-55
2022/01/02 05:20:12;;;;;;;21.00;8.95;;;11.00;99.90;;;;;;5030996;28;20047;-53
2022/01/02 05:22:39;;;;;;;19.65;8.77;;;11.10;99.90;;;;;;5057121;28;20032;-54
2022/01/02 05:25:05;;;;;;;;;;;11.00;99.90;;;;;;5055669;28;20178;-54
2022/01/02 05:27:31;;;;;;;22.98;8.95;;;11.00;99.90;;;;;;5083174;28;19927;-52
2022/01/02 05:29:58;;;;;;;23.00;8.32;;;11.00;99.90;;;;;;5063816;28;20048;-54
2022/01/02 05:32:23;;;;;;;22.85;8.63;;;11.00;99.90;;;;;;5067540;28;20055;-53
2022/01/02 05:34:49;;;;;;;18.48;8.68;;;11.00;99.90;;;;;;5081455;28;20028;-53
2022/01/02 05:37:15;;;;;;;23.05;8.98;;;11.00;99.90;;;;;;5091006;28;20040;-51
2022/01/02 05:39:41;;;;;;;22.63;8.85;;;11.00;99.90;;;;;;5088231;28;20034;-54
2022/01/02 05:42:08;;;;;;;15.52;7.63;;;11.00;99.90;;;;;;5067551;28;20340;-54
2022/01/02 05:44:34;;;;;;;18.65;7.82;;;11.00;99.90;;;;;;5101871;28;20048;-54
2022/01/02 05:47:00;;;;;;;15.02;7.20;;;11.00;99.90;;;;;;5083522;28;20071;-51
2022/01/02 05:49:26;;;;;;;22.63;7.38;;;11.00;99.90;;;;;;5075999;28;20071;-53
2022/01/02 05:51:52;;;;;;;16.92;7.32;;;11.00;99.90;;;;;;5086656;28;20035;-54
2022/01/02 05:54:24;;;;;;;18.73;7.38;;;11.00;99.90;;;;;;5072799;28;20047;-54
2022/01/02 05:56:51;;;;;;;20.85;7.38;;;11.00;99.90;;;;;;5085886;28;20035;-53
2022/01/02 05:59:16;;;;;;;18.08;6.82;;;11.00;99.90;;;;;;5086695;28;20051;-50
2022/01/02 06:01:42;;;;;;;19.15;6.32;;;11.00;99.90;;;;;;5087554;28;20084;-49
2022/01/02 06:04:08;;;;;;;20.33;7.05;;;11.00;99.90;;;;;;5100522;28;20048;-53
2022/01/02 06:06:34;;;;;;;18.60;6.28;;;11.00;99.90;;;;;;5108426;28;20044;-55
2022/01/02 06:09:00;;;;;;;20.67;6.28;;;11.10;99.90;;;;;;5102125;28;20048;-52
2022/01/02 06:11:26;;;;;;;16.55;6.88;;;11.10;99.90;;;;;;5091573;28;20069;-52
2022/01/02 06:13:58;;;;;;;15.32;6.07;;;11.10;99.90;;;;;;5104411;27;20116;-51
2022/01/02 06:16:23;;;;;;;20.38;6.90;;;11.10;99.90;;;;;;5082999;28;20647;-53
2022/01/02 06:18:52;;;;;;;21.15;6.60;;;11.10;99.90;;;;;;5086337;28;20038;-54
2022/01/02 06:21:18;;;;;;;21.90;7.20;;;11.10;99.90;;;;;;5101283;28;20040;-51
2022/01/02 06:23:43;;;;;;;18.77;6.78;;;11.10;99.90;;;;;;5089254;28;20092;-54
2022/01/02 06:26:09;;;;;;;15.88;6.05;;;11.10;99.90;;;;;;5097642;28;20115;-55
2022/01/02 06:28:35;;;;;;;22.88;6.43;;;11.10;99.90;;;;;;5103895;28;20044;-55
2022/01/02 06:31:01;;;;;;;17.40;5.65;;;11.20;99.90;;;;;;5101037;28;20040;-54
2022/01/02 06:33:27;;;;;;;14.82;6.50;;;11.20;99.90;;;;;;5079492;28;20040;-55
2022/01/02 06:35:53;;;;;;;15.48;5.70;;;11.20;99.90;;;;;;5109259;28;20139;-55
2022/01/02 06:38:21;;;;;;;16.75;6.38;;;11.20;99.90;;;;;;5082963;28;20055;-56
2022/01/02 06:40:47;;;;;;;14.20;5.72;;;11.20;99.90;;;;;;5074375;28;20596;-54
2022/01/02 06:43:15;;;;;;;12.82;5.53;;;11.20;99.90;;;;;;5105428;28;20104;-54
2022/01/02 06:45:42;;;;;;;16.38;6.82;;;11.20;99.90;;;;;;5083369;28;20048;-50
2022/01/02 06:48:08;;;;;;;16.90;5.63;;;11.20;99.90;;;;;;5091402;28;20047;-50
2022/01/02 06:50:34;;;;;;;14.15;5.78;;;11.30;99.90;;;;;;5083037;28;20081;-53
2022/01/02 06:53:00;;;;;;;13.27;5.43;;;11.30;99.90;;;;;;5066500;28;20036;-55
2022/01/02 06:55:26;;;;;;;12.40;5.68;;;11.30;99.90;;;;;;5086931;28;20069;-52
2022/01/02 06:57:52;;;;;;;19.20;5.97;;;11.30;99.90;;;;;;5102807;28;20036;-53
2022/01/02 07:00:21;;;;;;;17.60;5.60;;;11.30;99.90;;;;;;5087899;28;20046;-55
2022/01/02 07:02:47;;;;;;;15.35;5.13;;;11.30;99.90;;;;;;5093257;27;20040;-54
2022/01/02 07:05:14;;;;;;;14.00;5.40;;;11.30;99.90;;;;;;5073635;28;20044;-51
2022/01/02 07:07:41;;;;;;;20.58;5.78;;;11.30;99.90;;;;;;5063140;28;20036;-56
2022/01/02 07:10:09;;;;;;;18.45;5.70;;;11.30;99.90;;;;;;5053817;28;20553;-57
2022/01/02 07:12:34;;;;;;;;;;;11.30;99.90;;;;;;5068932;28;20036;-55
2022/01/02 07:15:00;;;;;;;17.65;5.28;;;11.40;99.90;;;;;;5108330;28;19941;-52
2022/01/02 07:17:26;;;;;;;14.90;4.35;;;11.40;99.90;;;;;;5082670;28;20112;-53
2022/01/02 07:19:52;;;;;;;13.82;5.32;;;11.40;99.90;;;;;;5073579;28;20085;-55
2022/01/02 07:22:18;;;;;;;10.05;4.30;;;11.40;99.90;;;;;;5090026;28;20063;-56
2022/01/02 07:24:50;;;;;;;12.45;3.97;;;11.40;99.90;;;;;;5094040;28;20733;-57
2022/01/02 07:27:16;;;;;;;12.90;3.90;;;11.40;99.90;;;;;;5089663;28;20520;-56
2022/01/02 07:29:44;;;;;;;14.57;4.27;;;11.40;99.90;;;;;;5098742;28;20040;-53
2022/01/02 07:32:10;;;;;;;13.43;4.00;;;11.40;99.90;;;;;;5091023;28;20473;-54
2022/01/02 07:34:36;;;;;;;9.20;3.33;;;11.50;99.90;;;;;;5089462;28;20052;-55
2022/01/02 07:37:02;;;;;;;8.57;3.20;;;11.50;99.90;;;;;;5080832;28;20044;-54
2022/01/02 07:39:28;;;;;;;11.48;3.25;;;11.50;99.90;;;;;;5105960;28;20045;-50
2022/01/02 07:41:54;;;;;;;7.22;3.00;;;11.50;99.90;;;;;;5088496;28;20058;-54
2022/01/02 07:44:20;;;;;;;10.50;3.20;;;11.60;99.90;;;;;;5069662;28;20510;-54
2022/01/02 07:46:46;;;;;;;9.15;2.95;;;11.60;99.90;;;;;;5086170;28;20383;-57
2022/01/02 07:49:12;;;;;;;8.98;2.80;;;11.60;99.90;;;;;;5102380;28;20500;-55
2022/01/02 07:51:38;;;;;;;9.00;3.40;;;11.60;99.90;;;;;;5105772;28;20560;-57
2022/01/02 07:54:04;;;;;;;9.20;2.75;;;11.60;99.90;;;;;;5100540;28;20065;-56
2022/01/02 07:56:31;;;;;;;11.52;3.30;;;11.60;99.90;;;;;;5096796;28;20028;-56
2022/01/02 07:58:58;;;;;;;13.85;3.60;;;11.50;99.90;;;;;;5105006;28;20040;-56
2022/01/02 08:01:24;;;;;;;11.25;3.33;;;11.60;99.90;;;;;;5077463;28;20062;-52
2022/01/02 08:03:51;;;;;;;9.48;3.22;;;11.60;99.90;;;;;;5056983;28;20040;-54
2022/01/02 08:06:17;;;;;;;8.20;3.25;;;11.50;99.90;;;;;;5097718;28;20498;-55
2022/01/02 08:08:44;;;;;;;10.00;3.72;;;11.50;99.90;;;;;;5083440;28;20076;-55
2022/01/02 08:11:15;;;;;;;8.43;3.38;;;11.50;99.90;;;;;;5068434;28;20054;-52
2022/01/02 08:13:44;;;;;;;9.05;3.70;;;11.50;99.90;;;;;;5062357;28;20132;-52
2022/01/02 08:16:12;;;;;;;8.98;3.17;;;11.50;99.90;;;;;;5100345;28;20338;-58
2022/01/02 08:18:38;;;;;;;8.68;3.53;;;11.50;99.90;;;;;;5114297;27;20471;-50
2022/01/02 08:21:05;;;;;;;13.10;3.80;;;11.50;99.90;;;;;;5076469;28;20058;-55
2022/01/02 08:23:31;;;;;;;10.90;3.50;;;11.50;99.90;;;;;;5100660;28;20126;-57
2022/01/02 08:25:57;;;;;;;11.60;3.72;;;11.50;99.90;;;;;;5105006;28;20043;-54
2022/01/02 08:28:23;;;;;;;16.35;3.60;;;11.40;99.90;;;;;;5073045;28;20039;-56
2022/01/02 08:30:49;;;;;;;11.85;4.05;;;11.40;99.90;;;;;;5098866;28;20122;-57
2022/01/02 08:33:17;;;;;;;13.65;4.78;;;11.40;99.90;;;;;;5107170;28;20114;-58
2022/01/02 08:35:48;;;;;;;12.88;4.30;;;11.40;99.90;;;;;;5080560;28;20450;-59
2022/01/02 08:38:14;;;;;;;9.77;3.90;;;11.40;99.90;;;;;;5083095;28;20051;-58
2022/01/02 08:40:41;;;;;;;9.20;3.70;;;11.40;99.90;;;;;;5080622;28;20130;-58
2022/01/02 08:43:09;;;;;;;10.82;3.88;;;11.40;99.90;;;;;;5053327;28;20045;-58
2022/01/02 08:45:35;;;;;;;;;;;11.40;99.90;;;;;;5080694;28;20190;-53
2022/01/02 08:48:03;;;;;;;14.02;4.45;;;11.30;99.90;;;;;;5078118;28;19916;-57
2022/01/02 08:50:39;;;;;;;11.52;4.43;;;11.30;99.90;;;;;;5065875;28;20048;-58
2022/01/02 08:53:06;;;;;;;11.23;4.63;;;11.30;99.90;;;;;;5070671;28;20596;-57
2022/01/02 08:55:34;;;;;;;10.07;4.70;;;11.30;99.90;;;;;;5055497;28;20677;-56
2022/01/02 08:58:00;;;;;;;7.68;4.43;;;11.30;99.90;;;;;;5063334;28;20067;-58
2022/01/02 09:00:26;;;;;;;12.60;4.47;;;11.30;99.90;;;;;;5045002;28;20486;-57
2022/01/02 09:02:54;;;;;;;7.18;4.30;;;11.30;99.90;;;;;;5046043;28;20043;-57
2022/01/02 09:05:21;;;;;;;8.77;4.45;;;11.30;99.90;;;;;;5065030;28;20044;-57
2022/01/02 09:07:47;;;;;;;8.45;4.00;;;11.30;99.90;;;;;;5036345;28;20296;-56
2022/01/02 09:10:15;;;;;;;10.43;4.50;;;11.30;99.90;;;;;;5070355;28;20113;-53
2022/01/02 09:12:42;;;;;;;10.57;4.80;;;11.30;99.90;;;;;;5068189;28;20040;-56
2022/01/02 09:15:08;;;;;;;11.27;4.15;;;11.20;99.90;;;;;;5076952;28;20068;-58
2022/01/02 09:17:34;;;;;;;14.63;4.40;;;11.20;99.90;;;;;;5081565;28;20040;-58
2022/01/02 09:20:03;;;;;;;7.90;3.92;;;11.20;99.90;;;;;;5059235;28;20127;-58
2022/01/02 09:22:30;;;;;;;6.72;3.97;;;11.20;99.90;;;;;;5061914;28;20143;-59
2022/01/02 09:24:56;;;;;;;10.35;4.70;;;11.30;99.90;;;;;;5062371;28;20036;-58
2022/01/02 09:27:22;;;;;;;9.52;4.60;;;11.20;99.90;;;;;;5065904;28;20043;-59
2022/01/02 09:29:48;;;;;;;11.32;4.72;;;11.20;99.90;;;;;;5060862;28;20028;-59
2022/01/02 09:32:14;;;;;;;10.40;5.03;;;11.20;99.90;;;;;;5070234;28;20538;-59
2022/01/02 09:34:39;;;;;;;9.75;4.88;;;11.20;99.90;;;;;;5051499;28;20444;-58
2022/01/02 09:37:05;;;;;;;9.43;4.80;;;11.20;99.90;;;;;;5087345;28;20466;-59
2022/01/02 09:39:31;;;;;;;11.43;5.05;;;11.20;99.90;;;;;;5051662;28;20402;-58
2022/01/02 09:41:57;;;;;;;10.43;5.32;;;11.20;99.90;;;;;;5089325;28;20046;-58
2022/01/02 09:44:23;;;;;;;9.70;4.60;;;11.20;99.90;;;;;;5066563;28;20071;-58
2022/01/02 09:46:52;;;;;;;12.85;5.05;;;11.20;99.90;;;;;;5099196;28;20055;-58
2022/01/02 09:49:21;;;;;;;9.40;4.25;;;11.10;99.90;;;;;;5090803;28;20039;-57
2022/01/02 09:51:47;;;;;;;7.65;4.72;;;11.10;99.90;;;;;;5104777;28;20350;-59
2022/01/02 09:54:14;;;;;;;9.90;4.45;;;11.20;99.90;;;;;;5070254;28;20043;-56
2022/01/02 09:56:39;;;;;;;8.32;4.57;;;11.10;99.90;;;;;;5086895;28;20469;-59
2022/01/02 09:59:09;;;;;;;9.65;5.32;;;11.10;99.90;;;;;;5110225;28;20032;-56
2022/01/02 10:01:37;;;;;;;10.75;5.35;;;11.10;99.90;;;;;;5104208;28;20040;-58
2022/01/02 10:04:04;;;;;;;11.85;5.97;;;11.10;99.90;;;;;;5051084;28;20482;-58
2022/01/02 10:06:48;;;;;;;10.23;5.75;;;11.10;99.90;;;;;;5104153;28;20097;-57
2022/01/02 10:09:32;;;;;;;12.98;6.05;;;11.10;99.90;;;;;;5082599;28;20127;-58
2022/01/02 10:12:28;;;;;;;9.02;5.22;;;11.10;99.90;;;;;;5091921;28;20114;-58
2022/01/02 10:15:06;;;;;;;11.30;6.13;;;11.10;99.90;;;;;;5085935;28;20054;-57
2022/01/02 10:18:06;;;;;;;7.95;5.43;;;11.00;99.90;;;;;;5096622;28;20043;-59
2022/01/02 10:20:38;;;;;;;10.05;5.90;;;11.00;99.90;;;;;;5098748;28;20043;-59
2022/01/02 10:23:17;;;;;;;12.00;6.03;;;11.10;99.90;;;;;;5080943;28;20043;-59
2022/01/02 10:25:45;;;;;;;13.40;6.30;;;11.10;99.90;;;;;;5099065;28;20050;-57
2022/01/02 10:28:27;;;;;;;14.00;6.28;;;11.00;99.90;;;;;;5105205;28;20039;-58
2022/01/02 10:31:04;;;;;;;11.80;6.45;;;11.00;99.90;;;;;;5101961;28;20062;-58
2022/01/02 10:33:51;;;;;;;11.70;6.32;;;11.10;99.90;;;;;;5078501;28;20036;-58
2022/01/02 10:36:40;;;;;;;12.43;6.38;;;11.10;99.90;;;;;;5079773;28;20048;-54
2022/01/02 10:39:08;;;;;;;10.63;5.97;;;11.10;99.90;;;;;;5099670;28;20035;-58
2022/01/02 10:41:40;;;;;;;12.77;6.65;;;11.10;99.90;;;;;;5103027;28;20113;-59
2022/01/02 10:44:26;;;;;;;15.40;7.18;;;11.10;99.90;;;;;;5094628;28;20084;-58
2022/01/02 10:47:08;;;;;;;10.70;6.75;;;11.10;99.90;;;;;;5095744;28;20040;-58
2022/01/02 10:49:50;;;;;;;14.32;7.05;;;11.10;99.90;;;;;;5088112;28;20063;-58
2022/01/02 10:52:16;;;;;;;13.45;7.40;;;11.10;99.90;;;;;;5113821;27;20046;-58
2022/01/02 10:54:42;;;;;;;19.55;8.25;;;11.10;99.90;;;;;;5106421;28;20042;-58
2022/01/02 10:57:09;;;;;;;18.23;7.43;;;11.10;99.90;;;;;;5081176;28;20506;-58
2022/01/02 10:59:37;;;;;;;14.00;7.65;;;11.10;99.90;;;;;;5062706;28;20043;-52
2022/01/02 11:02:04;;;;;;;13.70;7.35;;;11.10;99.90;;;;;;5094973;28;20157;-58
2022/01/02 11:04:32;;;;;;;18.60;7.05;;;11.10;99.90;;;;;;5100095;28;20027;-52
2022/01/02 11:07:05;;;;;;;14.02;7.00;;;11.20;99.90;;;;;;5060893;28;20039;-54
2022/01/02 11:09:32;;;;;;;15.85;6.57;;;11.20;99.90;;;;;;5086204;28;20038;-58
2022/01/02 11:11:58;;;;;;;16.40;7.32;;;11.20;99.90;;;;;;5077741;28;20032;-57
2022/01/02 11:14:24;;;;;;;16.65;5.35;;;11.10;99.90;;;;;;5071039;28;20065;-55
2022/01/02 11:16:51;;;;;;;15.15;5.20;;;11.20;99.90;;;;;;5085773;28;20048;-58
2022/01/02 11:19:18;;;;;;;13.10;5.63;;;11.20;99.90;;;;;;5077261;28;20040;-56
2022/01/02 11:21:46;;;;;;;14.98;5.25;;;11.20;99.90;;;;;;5083947;28;20125;-57
2022/01/02 11:24:20;;;;;;;19.02;5.18;;;11.20;99.90;;;;;;5081655;28;20051;-57
2022/01/02 11:27:04;;;;;;;13.73;4.85;;;11.30;99.90;;;;;;5086986;28;20074;-57
2022/01/02 11:29:33;;;;;;;10.70;4.45;;;11.30;99.90;;;;;;5103661;28;20039;-58
2022/01/02 11:32:23;;;;;;;12.55;5.50;;;11.30;99.90;;;;;;5093659;28;20097;-57
2022/01/02 11:34:50;;;;;;;12.27;4.63;;;11.30;99.90;;;;;;5102679;28;20058;-51
2022/01/02 11:37:25;;;;;;;16.97;4.83;;;11.40;99.90;;;;;;5107162;28;20144;-56
2022/01/02 11:40:04;;;;;;;10.15;4.13;;;11.40;99.90;;;;;;5089854;28;20031;-57
2022/01/02 11:42:38;;;;;;;13.15;4.82;;;11.40;99.90;;;;;;5101979;28;20035;-56
2022/01/02 11:45:28;;;;;;;16.23;4.47;;;11.40;99.90;;;;;;5103484;27;20059;-57
2022/01/02 11:47:55;;;;;;;18.08;4.78;;;11.40;99.90;;;;;;5085805;28;20039;-57
2022/01/02 11:50:30;;;;;;;16.67;4.63;;;11.40;99.90;;;;;;5100410;28;20043;-57
2022/01/02 11:53:12;;;;;;;11.60;4.28;;;11.40;99.90;;;;;;5081670;27;20377;-54
2022/01/02 11:55:40;;;;;;;13.43;4.13;;;11.40;99.90;;;;;;5066031;28;20051;-58
2022/01/02 11:58:07;;;;;;;10.52;4.75;;;11.30;99.90;;;;;;5061911;28;20045;-54
2022/01/02 12:00:43;;;;;;;9.70;3.67;;;11.40;99.90;;;;;;5060058;28;20037;-57
2022/01/02 12:03:40;;;;;;;11.43;4.47;;;11.30;99.90;;;;;;5038121;28;20490;-56
2022/01/02 12:06:33;;;;;;;15.57;4.72;;;11.30;99.90;;;;;;5062468;28;20044;-57
2022/01/02 12:09:05;;;;;;;11.57;4.13;;;11.30;99.90;;;;;;5057813;28;20098;-53
2022/01/02 12:11:31;;;;;;;12.23;4.05;;;11.30;99.90;;;;;;5061416;28;20079;-54
2022/01/02 12:14:16;;;;;;;11.60;4.25;;;11.30;99.90;;;;;;5058453;28;20037;-57
2022/01/02 12:16:52;;;;;;;8.82;3.20;;;11.30;99.90;;;;;;5079885;28;20036;-55
2022/01/02 12:19:19;;;;;;;12.77;3.33;;;11.20;99.90;;;;;;5054801;28;20375;-57
2022/01/02 12:22:08;;;;;;;14.00;3.70;;;11.20;99.90;;;;;;5058151;28;20045;-54
2022/01/02 12:24:34;;;;;;;13.90;3.75;;;11.20;99.90;;;;;;5064135;28;20046;-56
2022/01/02 12:27:12;;;;;;;11.10;3.20;;;11.20;99.90;;;;;;5062152;28;20112;-54
2022/01/02 12:29:39;;;;;;;17.35;4.18;;;11.20;99.90;;;;;;5059116;28;20068;-55
2022/01/02 12:32:07;;;;;;;12.32;3.10;;;11.10;99.90;;;;;;5064005;28;20037;-54
2022/01/02 12:34:34;;;;;;;11.10;3.35;;;11.20;99.90;;;;;;5077290;28;20037;-54
2022/01/02 12:37:02;;;;;;;11.68;3.17;;;11.20;99.90;;;;;;5092535;28;20497;-53
2022/01/02 12:39:33;;;;;;;17.08;3.15;;;11.10;99.90;;;;;;5042357;28;20129;-53
2022/01/02 12:42:08;;;;;;;11.35;3.22;;;11.10;99.90;;;;;;5055222;28;20059;-53
2022/01/02 12:44:36;;;;;;;10.00;3.08;;;11.10;99.90;;;;;;5043554;28;20066;-51
2022/01/02 12:47:07;;;;;;;12.90;2.70;;;11.10;99.90;;;;;;5058970;28;20044;-51
2022/01/02 12:49:36;;;;;;;6.95;2.10;;;11.10;99.90;;;;;;5058395;28;20487;-52
2022/01/02 12:52:04;;;;;;;10.00;2.90;;;11.10;99.90;;;;;;5059255;28;20057;-53
2022/01/02 12:54:36;;;;;;;13.13;2.85;;;11.10;99.90;;;;;;5072247;28;20060;-56
2022/01/02 12:57:11;;;;;;;14.90;2.70;;;11.10;99.90;;;;;;5077547;28;20068;-55
2022/01/02 12:59:46;;;;;;;10.73;2.50;;;11.10;99.90;;;;;;5073303;28;20036;-53